Time;durP1;ratioP1;P1;durP2;ratioP2;P2;SDS_P1;SDS_P2;PMS_P1;PMS_P2;Temp;Humidity;BMP_temperature;BMP_pressure;BME280_temperature;BME280_humidity;BME280_pressure;Samples;Min_cycle;Max_cycle;Signal;HPM_P1;HPM_P2
2022/06/26 00:01:54;;;;;;;8.87;4.10;;;;;;;;;;3345303;42;20076;-55
2022/06/26 00:04:20;;;;;;;10.80;4.03;;;;;;;;;;3346959;42;20364;-57
2022/06/26 00:06:46;;;;;;;8.90;4.28;;;;;;;;;;3343765;42;20097;-57
2022/06/26 00:09:12;;;;;;;9.77;4.35;;;;;;;;;;3342358;42;20167;-57
2022/06/26 00:11:38;;;;;;;9.15;4.40;;;;;;;;;;3343030;42;20101;-55
2022/06/26 00:14:04;;;;;;;8.53;4.13;;;;;;;;;;3344567;42;20120;-57
2022/06/26 00:16:30;;;;;;;9.82;4.43;;;;;;;;;;3345894;42;20115;-58
2022/06/26 00:18:56;;;;;;;9.68;4.20;;;;;;;;;;3345621;42;20085;-57
2022/06/26 00:21:22;;;;;;;8.35;4.07;;;;;;;;;;3340037;42;20085;-57
2022/06/26 00:23:49;;;;;;;8.67;4.40;;;;;;;;;;3345420;42;20097;-58
2022/06/26 00:26:15;;;;;;;8.25;4.20;;;;;;;;;;3343531;42;20162;-58
2022/06/26 00:28:41;;;;;;;8.90;4.20;;;;;;;;;;3347398;42;20089;-58
2022/06/26 00:31:06;;;;;;;10.68;4.60;;;;;;;;;;3340133;42;20149;-57
2022/06/26 00:33:32;;;;;;;9.00;4.47;;;;;;;;;;3342357;42;20468;-56
2022/06/26 00:35:58;;;;;;;10.48;5.10;;;;;;;;;;3347719;42;20460;-57
2022/06/26 00:38:24;;;;;;;10.20;4.13;;;;;;;;;;3344315;42;20119;-57
2022/06/26 00:40:50;;;;;;;8.83;4.33;;;;;;;;;;3343505;42;20124;-57
2022/06/26 00:43:16;;;;;;;9.75;4.50;;;;;;;;;;3345813;42;20116;-57
2022/06/26 00:45:42;;;;;;;10.65;4.28;;;;;;;;;;3344559;42;20084;-56
2022/06/26 00:48:08;;;;;;;10.25;4.35;;;;;;;;;;3344134;42;20767;-56
2022/06/26 00:50:35;;;;;;;9.60;4.67;;;;;;;;;;3349667;42;20100;-57
2022/06/26 00:53:01;;;;;;;8.93;4.20;;;;;;;;;;3343507;42;20550;-57
2022/06/26 00:55:27;;;;;;;8.52;4.28;;;;;;;;;;3346592;42;20131;-56
2022/06/26 00:57:53;;;;;;;7.70;4.10;;;;;;;;;;3343463;42;20568;-55
2022/06/26 01:00:20;;;;;;;8.40;4.50;;;;;;;;;;3339474;42;20108;-56
2022/06/26 01:02:46;;;;;;;10.30;4.20;;;;;;;;;;3345132;42;20097;-57
2022/06/26 01:05:12;;;;;;;9.52;4.55;;;;;;;;;;3343619;42;20093;-59
2022/06/26 01:07:39;;;;;;;9.75;4.40;;;;;;;;;;3345363;42;20085;-57
2022/06/26 01:10:05;;;;;;;8.80;4.53;;;;;;;;;;3342587;42;20132;-57
2022/06/26 01:12:31;;;;;;;9.32;4.45;;;;;;;;;;3340955;42;20201;-56
2022/06/26 01:14:58;;;;;;;9.23;4.20;;;;;;;;;;3348734;42;20080;-56
2022/06/26 01:17:23;;;;;;;9.32;4.25;;;;;;;;;;3342587;42;20096;-58
2022/06/26 01:19:49;;;;;;;9.98;4.07;;;;;;;;;;3339680;42;20148;-58
2022/06/26 01:22:15;;;;;;;8.43;4.35;;;;;;;;;;3344398;42;20080;-56
2022/06/26 01:24:41;;;;;;;9.57;4.27;;;;;;;;;;3342804;42;20108;-59
2022/06/26 01:27:07;;;;;;;11.07;4.10;;;;;;;;;;3345006;42;20089;-56
2022/06/26 01:29:33;;;;;;;12.15;4.10;;;;;;;;;;3340558;42;20211;-57
2022/06/26 01:31:59;;;;;;;11.73;4.10;;;;;;;;;;3346668;42;20103;-51
2022/06/26 01:34:25;;;;;;;8.63;4.40;;;;;;;;;;3345175;42;20088;-56
2022/06/26 01:36:51;;;;;;;7.63;4.13;;;;;;;;;;3339677;42;20077;-57
2022/06/26 01:39:20;;;;;;;10.43;4.13;;;;;;;;;;3347828;42;20092;-56
2022/06/26 01:41:47;;;;;;;9.90;4.17;;;;;;;;;;3346050;42;20144;-55
2022/06/26 01:44:13;;;;;;;9.55;4.05;;;;;;;;;;3341302;42;20171;-55
2022/06/26 01:46:39;;;;;;;9.70;4.00;;;;;;;;;;3339704;42;20100;-56
2022/06/26 01:49:05;;;;;;;10.15;3.92;;;;;;;;;;3343540;42;20089;-56
2022/06/26 01:51:31;;;;;;;9.07;4.15;;;;;;;;;;3343643;42;20112;-55
2022/06/26 01:53:57;;;;;;;7.37;3.70;;;;;;;;;;3344488;42;20233;-55
2022/06/26 01:56:23;;;;;;;11.90;4.18;;;;;;;;;;3348228;42;20132;-55
2022/06/26 01:58:49;;;;;;;7.60;3.53;;;;;;;;;;3343537;42;20132;-56
2022/06/26 02:01:15;;;;;;;7.43;3.80;;;;;;;;;;3348833;42;20577;-56
2022/06/26 02:03:41;;;;;;;7.57;3.78;;;;;;;;;;3343156;42;20113;-55
2022/06/26 02:06:07;;;;;;;9.35;3.90;;;;;;;;;;3345160;42;20503;-55
2022/06/26 02:08:33;;;;;;;8.93;3.85;;;;;;;;;;3348477;42;20113;-55
2022/06/26 02:13:44;;;;;;;11.57;3.97;;;;;;;;;;3351166;42;20135;-56
2022/06/26 02:16:11;;;;;;;7.30;3.50;;;;;;;;;;3347302;42;20089;-56
2022/06/26 02:18:38;;;;;;;8.15;3.72;;;;;;;;;;3352784;42;20255;-56
2022/06/26 02:21:08;;;;;;;6.75;3.50;;;;;;;;;;3349236;42;20111;-57
2022/06/26 02:23:34;;;;;;;7.47;3.57;;;;;;;;;;3351571;42;20534;-58
2022/06/26 02:26:01;;;;;;;8.70;3.67;;;;;;;;;;3351355;42;20171;-56
2022/06/26 02:28:27;;;;;;;8.52;3.72;;;;;;;;;;3350978;42;20081;-56
2022/06/26 02:30:53;;;;;;;7.35;3.50;;;;;;;;;;3350943;42;20103;-55
2022/06/26 02:33:19;;;;;;;9.30;3.60;;;;;;;;;;3347199;42;20564;-55
2022/06/26 02:35:46;;;;;;;8.40;3.60;;;;;;;;;;3346932;42;20093;-56
2022/06/26 02:38:12;;;;;;;8.07;3.22;;;;;;;;;;3340916;42;20588;-53
2022/06/26 02:40:38;;;;;;;7.38;3.47;;;;;;;;;;3347469;42;20097;-56
2022/06/26 02:43:04;;;;;;;11.07;3.33;;;;;;;;;;3345434;42;20099;-54
2022/06/26 02:45:30;;;;;;;6.47;3.53;;;;;;;;;;3346582;42;20103;-53
2022/06/26 02:47:56;;;;;;;8.48;3.63;;;;;;;;;;3343182;42;20088;-55
2022/06/26 02:50:22;;;;;;;7.88;3.67;;;;;;;;;;3350676;42;20642;-56
2022/06/26 02:52:48;;;;;;;7.80;3.43;;;;;;;;;;3345305;42;20136;-55
2022/06/26 02:55:14;;;;;;;8.27;3.55;;;;;;;;;;3346795;42;20163;-55
2022/06/26 02:57:40;;;;;;;7.53;3.08;;;;;;;;;;3346534;42;20089;-55
2022/06/26 03:00:08;;;;;;;8.00;3.22;;;;;;;;;;3346729;42;20167;-55
2022/06/26 03:02:34;;;;;;;9.75;3.75;;;;;;;;;;3345843;42;20084;-56
2022/06/26 03:05:00;;;;;;;8.53;3.43;;;;;;;;;;3342573;42;20100;-55
2022/06/26 03:07:26;;;;;;;7.78;3.70;;;;;;;;;;3345237;42;20101;-54
2022/06/26 03:09:52;;;;;;;10.32;3.30;;;;;;;;;;3343068;42;20100;-55
2022/06/26 03:12:18;;;;;;;9.77;3.27;;;;;;;;;;3350906;42;20081;-54
2022/06/26 03:14:44;;;;;;;7.35;3.13;;;;;;;;;;3344622;42;20085;-54
2022/06/26 03:17:10;;;;;;;8.52;3.47;;;;;;;;;;3345469;42;20244;-55
2022/06/26 03:19:36;;;;;;;7.45;3.40;;;;;;;;;;3347034;42;20073;-54
2022/06/26 03:22:02;;;;;;;8.93;3.30;;;;;;;;;;3347251;42;20103;-56
2022/06/26 03:24:28;;;;;;;7.53;3.65;;;;;;;;;;3343863;42;20163;-56
2022/06/26 03:26:54;;;;;;;6.38;3.03;;;;;;;;;;3348630;42;20101;-54
2022/06/26 03:29:20;;;;;;;7.78;3.30;;;;;;;;;;3346132;42;20165;-52
2022/06/26 03:31:46;;;;;;;8.63;3.20;;;;;;;;;;3352166;42;20322;-53
2022/06/26 03:34:12;;;;;;;10.65;3.70;;;;;;;;;;3347999;42;20101;-56
2022/06/26 03:36:38;;;;;;;10.48;3.33;;;;;;;;;;3348293;42;20089;-56
2022/06/26 03:39:04;;;;;;;7.22;3.15;;;;;;;;;;3343348;42;20196;-55
2022/06/26 03:41:30;;;;;;;5.97;2.87;;;;;;;;;;3350479;42;20102;-55
2022/06/26 03:43:56;;;;;;;9.13;3.40;;;;;;;;;;3345560;42;20093;-55
2022/06/26 03:46:22;;;;;;;7.32;3.38;;;;;;;;;;3346091;42;20081;-56
2022/06/26 03:48:48;;;;;;;10.50;3.72;;;;;;;;;;3348926;42;20167;-57
2022/06/26 03:51:14;;;;;;;6.30;3.27;;;;;;;;;;3342413;42;20145;-58
2022/06/26 03:53:40;;;;;;;7.50;3.20;;;;;;;;;;3343747;42;20080;-56
2022/06/26 03:56:05;;;;;;;8.60;3.30;;;;;;;;;;3348123;42;20129;-55
2022/06/26 03:58:32;;;;;;;7.10;2.97;;;;;;;;;;3347735;42;20228;-56
2022/06/26 04:00:57;;;;;;;6.10;3.07;;;;;;;;;;3341827;42;20104;-57
2022/06/26 04:03:24;;;;;;;6.53;3.10;;;;;;;;;;3342189;42;20097;-56
2022/06/26 04:05:49;;;;;;;9.20;2.80;;;;;;;;;;3346534;42;20507;-55
2022/06/26 04:08:15;;;;;;;6.82;2.90;;;;;;;;;;3344598;42;20564;-56
2022/06/26 04:10:42;;;;;;;9.17;2.50;;;;;;;;;;3347002;42;20097;-53
2022/06/26 04:13:09;;;;;;;6.95;2.63;;;;;;;;;;3344855;42;20128;-56
2022/06/26 04:15:36;;;;;;;7.97;3.03;;;;;;;;;;3342251;42;20642;-57
2022/06/26 04:18:02;;;;;;;7.63;2.70;;;;;;;;;;3344012;42;20220;-59
2022/06/26 04:20:28;;;;;;;6.40;2.63;;;;;;;;;;3345935;42;20156;-56
2022/06/26 04:23:00;;;;;;;6.17;2.60;;;;;;;;;;3344665;42;20085;-58
2022/06/26 04:25:27;;;;;;;7.10;2.70;;;;;;;;;;3345073;42;20136;-54
2022/06/26 04:27:53;;;;;;;8.70;2.50;;;;;;;;;;3349355;42;20116;-56
2022/06/26 04:30:19;;;;;;;9.60;3.00;;;;;;;;;;3345612;42;20097;-56
2022/06/26 04:32:45;;;;;;;6.78;2.72;;;;;;;;;;3337904;42;20114;-57
2022/06/26 04:35:12;;;;;;;7.13;2.60;;;;;;;;;;3339282;42;20089;-56
2022/06/26 04:37:38;;;;;;;7.07;2.60;;;;;;;;;;3346182;42;20140;-57
2022/06/26 04:40:04;;;;;;;5.85;2.58;;;;;;;;;;3345686;42;20167;-56
2022/06/26 04:42:31;;;;;;;9.70;2.50;;;;;;;;;;3342553;42;20088;-57
2022/06/26 04:44:57;;;;;;;6.37;2.30;;;;;;;;;;3347842;42;20160;-54
2022/06/26 04:47:22;;;;;;;6.40;2.85;;;;;;;;;;3341008;42;20664;-56
2022/06/26 04:49:48;;;;;;;6.47;2.60;;;;;;;;;;3347246;42;20148;-56
2022/06/26 04:52:15;;;;;;;6.95;2.60;;;;;;;;;;3343480;42;20153;-53
2022/06/26 04:54:42;;;;;;;6.73;2.70;;;;;;;;;;3344630;42;20150;-55
2022/06/26 04:57:08;;;;;;;6.70;2.92;;;;;;;;;;3341745;42;20105;-56
2022/06/26 04:59:34;;;;;;;8.25;2.40;;;;;;;;;;3346606;42;20088;-57
2022/06/26 05:02:00;;;;;;;10.98;2.83;;;;;;;;;;3349473;42;20869;-57
2022/06/26 05:04:25;;;;;;;7.07;2.50;;;;;;;;;;3344820;42;20085;-56
2022/06/26 05:06:51;;;;;;;5.80;2.30;;;;;;;;;;3344906;42;20156;-56
2022/06/26 05:09:17;;;;;;;8.65;2.92;;;;;;;;;;3344873;42;20084;-54
2022/06/26 05:11:44;;;;;;;10.10;2.45;;;;;;;;;;3345756;42;20135;-56
2022/06/26 05:14:10;;;;;;;5.57;2.30;;;;;;;;;;3342054;42;20139;-54
2022/06/26 05:16:36;;;;;;;5.43;2.47;;;;;;;;;;3344765;42;20085;-56
2022/06/26 05:19:02;;;;;;;5.72;2.50;;;;;;;;;;3343548;42;20588;-55
2022/06/26 05:21:28;;;;;;;6.90;2.45;;;;;;;;;;3346524;42;20697;-56
2022/06/26 05:23:55;;;;;;;6.18;2.53;;;;;;;;;;3345545;42;20113;-58
2022/06/26 05:26:22;;;;;;;6.43;2.28;;;;;;;;;;3345713;42;20176;-55
2022/06/26 05:28:48;;;;;;;7.13;2.30;;;;;;;;;;3342688;42;20093;-57
2022/06/26 05:31:14;;;;;;;9.20;2.50;;;;;;;;;;3343639;42;20096;-56
2022/06/26 05:33:40;;;;;;;5.15;2.00;;;;;;;;;;3344703;42;20097;-57
2022/06/26 05:36:07;;;;;;;6.40;2.17;;;;;;;;;;3348279;42;20096;-56
2022/06/26 05:38:36;;;;;;;8.43;2.20;;;;;;;;;;3343448;42;20084;-58
2022/06/26 05:41:02;;;;;;;6.78;2.20;;;;;;;;;;3344102;42;20140;-58
2022/06/26 05:43:28;;;;;;;9.95;2.70;;;;;;;;;;3350288;42;20099;-57
2022/06/26 05:45:54;;;;;;;5.90;2.35;;;;;;;;;;3345500;42;20172;-56
2022/06/26 05:48:20;;;;;;;5.00;1.93;;;;;;;;;;3349564;42;20097;-58
2022/06/26 05:50:46;;;;;;;6.25;2.13;;;;;;;;;;3344334;42;20085;-58
2022/06/26 05:53:12;;;;;;;6.60;2.00;;;;;;;;;;3346290;42;20096;-58
2022/06/26 05:55:38;;;;;;;14.45;2.40;;;;;;;;;;3350956;42;20084;-57
2022/06/26 05:58:05;;;;;;;5.87;1.93;;;;;;;;;;3359054;42;20076;-57
2022/06/26 06:00:33;;;;;;;5.30;1.90;;;;;;;;;;3351789;42;20511;-56
2022/06/26 06:02:59;;;;;;;6.45;2.13;;;;;;;;;;3349870;42;20182;-56
2022/06/26 06:05:27;;;;;;;5.75;1.90;;;;;;;;;;3346387;42;20188;-57
2022/06/26 06:07:54;;;;;;;8.15;2.20;;;;;;;;;;3344109;42;20140;-56
2022/06/26 06:10:20;;;;;;;6.90;2.30;;;;;;;;;;3345653;42;20105;-57
2022/06/26 06:12:47;;;;;;;5.00;2.17;;;;;;;;;;3346921;42;20616;-57
2022/06/26 06:15:13;;;;;;;11.48;2.10;;;;;;;;;;3346015;42;20152;-54
2022/06/26 06:17:41;;;;;;;7.28;2.15;;;;;;;;;;3342933;42;20137;-57
2022/06/26 06:20:12;;;;;;;7.37;2.10;;;;;;;;;;3341563;42;20152;-56
2022/06/26 06:22:39;;;;;;;8.88;2.10;;;;;;;;;;3344931;42;20115;-57
2022/06/26 06:25:06;;;;;;;9.35;2.10;;;;;;;;;;3347222;42;20107;-56
2022/06/26 06:27:32;;;;;;;7.30;1.95;;;;;;;;;;3344877;42;20578;-57
2022/06/26 06:29:58;;;;;;;5.57;1.85;;;;;;;;;;3350198;42;20093;-57
2022/06/26 06:32:24;;;;;;;4.93;1.80;;;;;;;;;;3347704;42;20103;-58
2022/06/26 06:34:50;;;;;;;18.30;2.40;;;;;;;;;;3347805;42;20160;-57
2022/06/26 06:37:16;;;;;;;5.75;2.00;;;;;;;;;;3346856;42;20084;-58
2022/06/26 06:39:42;;;;;;;5.20;2.00;;;;;;;;;;3345517;42;20092;-56
2022/06/26 06:42:08;;;;;;;6.32;2.20;;;;;;;;;;3345199;42;20177;-55
2022/06/26 06:44:34;;;;;;;5.85;2.30;;;;;;;;;;3347328;42;20093;-55
2022/06/26 06:46:59;;;;;;;8.00;2.00;;;;;;;;;;3346486;42;20120;-57
2022/06/26 06:49:26;;;;;;;7.23;1.90;;;;;;;;;;3340201;42;20093;-57
2022/06/26 06:51:52;;;;;;;8.50;2.00;;;;;;;;;;3343730;42;20089;-57
2022/06/26 06:54:18;;;;;;;5.45;1.90;;;;;;;;;;3341263;42;20089;-56
2022/06/26 06:56:44;;;;;;;6.55;1.88;;;;;;;;;;3343841;42;20095;-57
2022/06/26 06:59:10;;;;;;;5.57;1.80;;;;;;;;;;3344796;42;20113;-53
2022/06/26 07:01:35;;;;;;;5.13;2.05;;;;;;;;;;3346103;42;20096;-57
2022/06/26 07:04:01;;;;;;;5.22;1.88;;;;;;;;;;3344397;42;20215;-57
2022/06/26 07:06:27;;;;;;;6.43;1.80;;;;;;;;;;3346695;42;20091;-57
2022/06/26 07:08:53;;;;;;;9.95;2.13;;;;;;;;;;3345629;42;20116;-59
2022/06/26 07:11:19;;;;;;;7.65;1.90;;;;;;;;;;3344325;42;20151;-58
2022/06/26 07:13:47;;;;;;;7.35;1.80;;;;;;;;;;3345652;42;20152;-58
2022/06/26 07:16:13;;;;;;;5.27;1.90;;;;;;;;;;3345075;42;20148;-56
2022/06/26 07:18:39;;;;;;;5.38;1.90;;;;;;;;;;3345164;42;20100;-58
2022/06/26 07:21:07;;;;;;;5.47;2.10;;;;;;;;;;3348613;42;20085;-57
2022/06/26 07:23:33;;;;;;;8.65;1.90;;;;;;;;;;3343765;42;20226;-59
2022/06/26 07:25:59;;;;;;;5.68;1.98;;;;;;;;;;3352355;42;20091;-56
2022/06/26 07:28:24;;;;;;;6.60;1.90;;;;;;;;;;3358208;42;20084;-57
2022/06/26 07:30:52;;;;;;;6.95;2.08;;;;;;;;;;3351893;42;20178;-55
2022/06/26 07:36:03;;;;;;;6.03;1.70;;;;;;;;;;3345141;42;20137;-56
2022/06/26 07:38:29;;;;;;;6.20;1.73;;;;;;;;;;3342797;42;20570;-60
2022/06/26 07:40:55;;;;;;;7.75;2.00;;;;;;;;;;3343829;42;20097;-57
2022/06/26 07:43:21;;;;;;;10.68;1.90;;;;;;;;;;3348583;42;20136;-57
2022/06/26 07:45:48;;;;;;;5.75;1.80;;;;;;;;;;3344882;42;20179;-56
2022/06/26 07:48:14;;;;;;;6.43;1.70;;;;;;;;;;3347633;42;20136;-57
2022/06/26 07:50:40;;;;;;;6.80;2.00;;;;;;;;;;3343850;42;20112;-57
2022/06/26 07:53:06;;;;;;;8.68;1.88;;;;;;;;;;3345660;42;20540;-58
2022/06/26 07:55:32;;;;;;;7.00;1.80;;;;;;;;;;3339069;42;20132;-56
2022/06/26 07:57:58;;;;;;;10.27;1.70;;;;;;;;;;3343550;42;20522;-57
2022/06/26 08:00:24;;;;;;;8.82;1.85;;;;;;;;;;3357584;42;20524;-57
2022/06/26 08:02:50;;;;;;;8.13;2.25;;;;;;;;;;3351004;42;20128;-57
2022/06/26 08:05:16;;;;;;;14.98;2.17;;;;;;;;;;3351821;42;20100;-56
2022/06/26 08:07:42;;;;;;;6.77;1.60;;;;;;;;;;3351819;42;20084;-57
2022/06/26 08:10:09;;;;;;;8.13;2.30;;;;;;;;;;3352463;42;20112;-57
2022/06/26 08:12:35;;;;;;;6.30;1.65;;;;;;;;;;3351495;42;20111;-54
2022/06/26 08:15:00;;;;;;;20.60;2.83;;;;;;;;;;3351711;42;20131;-56
2022/06/26 08:17:26;;;;;;;5.43;1.50;;;;;;;;;;3358421;42;20595;-54
2022/06/26 08:19:52;;;;;;;7.90;1.40;;;;;;;;;;3352320;42;20159;-58
2022/06/26 08:22:18;;;;;;;6.90;1.60;;;;;;;;;;3350047;42;20088;-57
2022/06/26 08:24:44;;;;;;;5.80;1.53;;;;;;;;;;3352089;42;20797;-57
2022/06/26 08:27:10;;;;;;;6.77;1.40;;;;;;;;;;3352529;42;20355;-58
2022/06/26 08:29:37;;;;;;;4.85;1.40;;;;;;;;;;3347009;42;20088;-57
2022/06/26 08:32:03;;;;;;;6.13;1.80;;;;;;;;;;3350896;42;20538;-56
2022/06/26 08:34:29;;;;;;;5.32;1.60;;;;;;;;;;3349522;42;20178;-56
2022/06/26 08:36:55;;;;;;;5.30;1.50;;;;;;;;;;3357668;42;20096;-57
2022/06/26 08:39:22;;;;;;;4.60;1.40;;;;;;;;;;3358259;42;20097;-57
2022/06/26 08:41:48;;;;;;;4.45;1.40;;;;;;;;;;3356982;42;20112;-57
2022/06/26 08:44:14;;;;;;;7.25;1.60;;;;;;;;;;3358518;42;20096;-58
2022/06/26 08:46:41;;;;;;;7.53;1.60;;;;;;;;;;3352442;42;20116;-56
2022/06/26 08:49:12;;;;;;;5.80;1.50;;;;;;;;;;3351445;42;20149;-56
2022/06/26 08:51:40;;;;;;;5.20;1.45;;;;;;;;;;3345645;42;20548;-57
2022/06/26 08:54:06;;;;;;;5.63;1.33;;;;;;;;;;3341824;42;20092;-57
2022/06/26 08:56:36;;;;;;;7.22;1.60;;;;;;;;;;3341863;42;20129;-56
2022/06/26 08:59:02;;;;;;;5.37;1.87;;;;;;;;;;3345427;42;20085;-56
2022/06/26 09:01:28;;;;;;;6.43;1.80;;;;;;;;;;3340599;42;20084;-57
2022/06/26 09:03:54;;;;;;;7.13;1.70;;;;;;;;;;3348467;42;20104;-57
2022/06/26 09:06:20;;;;;;;5.55;1.40;;;;;;;;;;3341895;42;20101;-57
2022/06/26 09:08:49;;;;;;;5.10;1.50;;;;;;;;;;3342454;42;20291;-57
2022/06/26 09:11:16;;;;;;;5.90;1.38;;;;;;;;;;3345876;42;20201;-56
2022/06/26 09:13:43;;;;;;;5.00;1.50;;;;;;;;;;3341388;42;20128;-57
2022/06/26 09:16:09;;;;;;;5.75;1.50;;;;;;;;;;3345560;42;20136;-57
2022/06/26 09:18:36;;;;;;;5.68;1.55;;;;;;;;;;3340754;42;20157;-57
2022/06/26 09:21:04;;;;;;;6.33;1.53;;;;;;;;;;3344475;42;20171;-58
2022/06/26 09:23:35;;;;;;;5.95;1.50;;;;;;;;;;3339425;42;20105;-57
2022/06/26 09:26:01;;;;;;;5.88;1.60;;;;;;;;;;3347525;42;20141;-57
2022/06/26 09:28:27;;;;;;;8.45;1.63;;;;;;;;;;3341754;42;20077;-58
2022/06/26 09:30:59;;;;;;;4.80;1.70;;;;;;;;;;3342133;42;20115;-59
2022/06/26 09:33:29;;;;;;;6.00;1.60;;;;;;;;;;3349399;42;20084;-55
2022/06/26 09:35:56;;;;;;;5.20;1.85;;;;;;;;;;3353078;42;20898;-59
2022/06/26 09:38:23;;;;;;;6.75;1.65;;;;;;;;;;3346069;42;20519;-58
2022/06/26 09:40:52;;;;;;;7.00;1.83;;;;;;;;;;3346439;42;20104;-56
2022/06/26 09:43:39;;;;;;;7.35;1.70;;;;;;;;;;3346253;42;20089;-57
2022/06/26 09:46:06;;;;;;;8.10;1.70;;;;;;;;;;3344225;42;20144;-58
2022/06/26 09:48:33;;;;;;;10.15;1.90;;;;;;;;;;3344469;42;20163;-58
2022/06/26 09:50:59;;;;;;;5.85;1.65;;;;;;;;;;3345339;42;20097;-58
2022/06/26 09:53:25;;;;;;;4.50;1.42;;;;;;;;;;3345192;42;20216;-56
2022/06/26 09:55:53;;;;;;;5.93;1.50;;;;;;;;;;3343162;42;20101;-63
2022/06/26 09:58:19;;;;;;;6.67;1.70;;;;;;;;;;3344537;42;20089;-57
2022/06/26 10:06:28;;;;;;;5.47;1.70;;;;;;;;;;3344205;42;20100;-58
2022/06/26 10:08:55;;;;;;;7.78;1.50;;;;;;;;;;3345109;42;20301;-56
2022/06/26 10:11:27;;;;;;;6.87;1.60;;;;;;;;;;3343717;42;20100;-57
2022/06/26 10:14:10;;;;;;;7.60;1.48;;;;;;;;;;3344150;42;20553;-57
2022/06/26 10:17:14;;;;;;;6.28;1.50;;;;;;;;;;3334537;42;20093;-58
2022/06/26 10:20:06;;;;;;;5.18;1.50;;;;;;;;;;3342624;42;20192;-58
2022/06/26 10:22:42;;;;;;;10.27;1.70;;;;;;;;;;3343813;42;20128;-58
2022/06/26 10:25:20;;;;;;;5.80;1.50;;;;;;;;;;3345411;42;20148;-57
2022/06/26 10:27:46;;;;;;;5.25;1.48;;;;;;;;;;3341593;42;20089;-57
2022/06/26 10:30:13;;;;;;;7.85;1.77;;;;;;;;;;3346832;42;20099;-58
2022/06/26 10:32:39;;;;;;;7.30;1.73;;;;;;;;;;3345471;42;20149;-57
2022/06/26 10:35:06;;;;;;;5.07;1.40;;;;;;;;;;3341274;42;20141;-58
2022/06/26 10:37:45;;;;;;;5.10;1.50;;;;;;;;;;3342655;42;20148;-57
2022/06/26 10:43:09;;;;;;;6.18;1.75;;;;;;;;;;3343001;42;20167;-58
2022/06/26 10:45:38;;;;;;;5.40;1.67;;;;;;;;;;3344302;42;20138;-58
2022/06/26 10:48:18;;;;;;;4.82;1.60;;;;;;;;;;3344739;42;20159;-58
2022/06/26 10:50:47;;;;;;;6.30;1.53;;;;;;;;;;3342505;42;20171;-60
2022/06/26 10:53:23;;;;;;;7.15;1.73;;;;;;;;;;3346247;42;20599;-57
2022/06/26 10:55:57;;;;;;;6.22;1.50;;;;;;;;;;3345603;42;20139;-55
2022/06/26 10:58:31;;;;;;;6.68;1.60;;;;;;;;;;3342121;42;20143;-56
2022/06/26 11:01:04;;;;;;;4.30;1.40;;;;;;;;;;3347865;42;20093;-57
2022/06/26 11:03:30;;;;;;;4.90;1.70;;;;;;;;;;3340667;42;20089;-58
2022/06/26 11:05:58;;;;;;;5.13;1.50;;;;;;;;;;3346799;42;20552;-58
2022/06/26 11:08:26;;;;;;;6.38;1.70;;;;;;;;;;3347572;42;20135;-58
2022/06/26 11:10:52;;;;;;;7.10;1.70;;;;;;;;;;3341918;42;20147;-58
2022/06/26 11:13:19;;;;;;;6.20;1.67;;;;;;;;;;3343174;42;20516;-58
2022/06/26 11:15:45;;;;;;;6.87;2.17;;;;;;;;;;3341247;42;20084;-59
2022/06/26 11:18:10;;;;;;;5.07;1.52;;;;;;;;;;3342812;42;20092;-58
2022/06/26 11:20:46;;;;;;;4.63;1.60;;;;;;;;;;3348273;42;20100;-57
2022/06/26 11:23:26;;;;;;;5.30;1.55;;;;;;;;;;3345399;42;20148;-57
2022/06/26 11:25:56;;;;;;;8.43;1.50;;;;;;;;;;3344797;42;20085;-58
2022/06/26 11:28:33;;;;;;;7.40;1.40;;;;;;;;;;3345186;42;20155;-57
2022/06/26 11:31:00;;;;;;;6.15;1.40;;;;;;;;;;3343585;42;20149;-57
2022/06/26 11:33:31;;;;;;;7.72;1.50;;;;;;;;;;3340496;42;20092;-57
2022/06/26 11:36:05;;;;;;;4.50;1.40;;;;;;;;;;3345474;42;20098;-57
2022/06/26 11:38:31;;;;;;;5.60;1.30;;;;;;;;;;3345198;42;20092;-58
2022/06/26 11:41:01;;;;;;;5.80;1.30;;;;;;;;;;3361498;42;20132;-58
2022/06/26 11:43:27;;;;;;;4.57;1.42;;;;;;;;;;3348284;42;20084;-57
2022/06/26 11:45:54;;;;;;;5.63;1.70;;;;;;;;;;3348862;42;20520;-58
2022/06/26 11:48:21;;;;;;;11.50;1.40;;;;;;;;;;3343757;42;20114;-59
2022/06/26 11:50:51;;;;;;;6.53;1.20;;;;;;;;;;3344411;42;20105;-57
2022/06/26 11:53:25;;;;;;;4.47;1.35;;;;;;;;;;3345134;42;20567;-58
2022/06/26 11:55:53;;;;;;;6.22;1.50;;;;;;;;;;3346709;42;20089;-57
2022/06/26 11:58:24;;;;;;;7.00;1.50;;;;;;;;;;3343778;42;20144;-58
2022/06/26 12:00:50;;;;;;;11.30;1.30;;;;;;;;;;3347473;42;20242;-58
2022/06/26 12:03:18;;;;;;;5.13;0.93;;;;;;;;;;3346984;42;20639;-57
2022/06/26 12:05:45;;;;;;;6.10;1.20;;;;;;;;;;3349624;42;20084;-56
2022/06/26 12:08:16;;;;;;;5.07;1.20;;;;;;;;;;3338594;42;20148;-57
2022/06/26 12:10:43;;;;;;;8.32;1.10;;;;;;;;;;3352697;42;20156;-58
2022/06/26 12:13:09;;;;;;;7.80;1.30;;;;;;;;;;3343315;42;20085;-55
2022/06/26 12:15:36;;;;;;;3.97;1.07;;;;;;;;;;3335384;42;20149;-58
2022/06/26 12:18:04;;;;;;;7.03;1.40;;;;;;;;;;3344238;42;20574;-58
2022/06/26 12:20:38;;;;;;;5.22;1.20;;;;;;;;;;3346595;42;20112;-58
2022/06/26 12:23:05;;;;;;;5.57;1.27;;;;;;;;;;3344279;42;20124;-58
2022/06/26 12:25:35;;;;;;;4.43;1.25;;;;;;;;;;3347661;42;20107;-58
2022/06/26 12:28:01;;;;;;;4.30;1.20;;;;;;;;;;3345275;42;20097;-60
2022/06/26 12:30:35;;;;;;;4.28;1.05;;;;;;;;;;3343933;42;20163;-59
2022/06/26 12:33:04;;;;;;;3.47;1.00;;;;;;;;;;3348476;42;20085;-59
2022/06/26 12:35:30;;;;;;;3.95;1.13;;;;;;;;;;3339273;42;20721;-58
2022/06/26 12:37:56;;;;;;;3.92;1.10;;;;;;;;;;3342626;42;20135;-59
2022/06/26 12:40:22;;;;;;;6.13;1.50;;;;;;;;;;3348632;42;20104;-59
2022/06/26 12:42:48;;;;;;;4.88;1.30;;;;;;;;;;3341253;42;20111;-59
2022/06/26 12:45:14;;;;;;;5.05;1.00;;;;;;;;;;3347026;42;20096;-59
2022/06/26 12:47:40;;;;;;;5.55;1.00;;;;;;;;;;3339721;42;20105;-59
2022/06/26 12:50:07;;;;;;;3.20;0.90;;;;;;;;;;3345733;42;20812;-58
2022/06/26 12:52:33;;;;;;;5.25;1.00;;;;;;;;;;3338999;42;20264;-58
2022/06/26 12:55:00;;;;;;;6.65;1.20;;;;;;;;;;3344969;42;20088;-59
2022/06/26 12:57:26;;;;;;;6.70;1.05;;;;;;;;;;3345591;42;20132;-58
2022/06/26 12:59:52;;;;;;;5.57;1.23;;;;;;;;;;3341459;42;20089;-58
2022/06/26 13:02:18;;;;;;;5.67;1.20;;;;;;;;;;3344685;42;20111;-58
2022/06/26 13:04:44;;;;;;;5.20;1.25;;;;;;;;;;3341066;42;20136;-58
2022/06/26 13:07:10;;;;;;;5.65;1.00;;;;;;;;;;3339755;42;20085;-58
2022/06/26 13:09:36;;;;;;;7.30;1.27;;;;;;;;;;3343428;42;20560;-57
2022/06/26 13:12:02;;;;;;;4.73;1.00;;;;;;;;;;3346137;42;20289;-58
2022/06/26 13:14:28;;;;;;;4.70;1.00;;;;;;;;;;3340056;42;20101;-58
2022/06/26 13:16:54;;;;;;;4.47;1.00;;;;;;;;;;3344261;42;20104;-59
2022/06/26 13:19:20;;;;;;;6.77;1.10;;;;;;;;;;3343361;42;20081;-58
2022/06/26 13:21:45;;;;;;;3.95;0.98;;;;;;;;;;3344067;42;20089;-59
2022/06/26 13:24:13;;;;;;;4.22;1.10;;;;;;;;;;3342589;42;20104;-57
2022/06/26 13:26:39;;;;;;;3.67;1.02;;;;;;;;;;3345170;42;20128;-54
2022/06/26 13:29:05;;;;;;;6.27;1.20;;;;;;;;;;3349034;42;20108;-55
2022/06/26 13:31:31;;;;;;;5.55;1.20;;;;;;;;;;3348141;42;20097;-56
2022/06/26 13:33:57;;;;;;;4.38;1.02;;;;;;;;;;3342362;42;20093;-58
2022/06/26 13:36:23;;;;;;;6.55;1.00;;;;;;;;;;3343597;42;20182;-63
2022/06/26 13:38:50;;;;;;;3.93;1.17;;;;;;;;;;3339871;42;20112;-55
2022/06/26 13:41:16;;;;;;;5.80;1.00;;;;;;;;;;3345821;42;20611;-57
2022/06/26 13:43:42;;;;;;;6.60;1.25;;;;;;;;;;3346531;42;20109;-58
2022/06/26 13:46:08;;;;;;;3.40;0.90;;;;;;;;;;3343306;42;20088;-57
2022/06/26 13:48:34;;;;;;;5.03;1.10;;;;;;;;;;3341928;42;20097;-54
2022/06/26 13:51:00;;;;;;;3.88;1.02;;;;;;;;;;3343905;42;20594;-53
2022/06/26 13:53:26;;;;;;;4.63;1.00;;;;;;;;;;3339324;42;20504;-54
2022/06/26 13:55:52;;;;;;;5.30;1.33;;;;;;;;;;3345150;42;20621;-55
2022/06/26 13:58:18;;;;;;;5.10;1.10;;;;;;;;;;3347233;42;20105;-57
2022/06/26 14:00:45;;;;;;;4.00;1.00;;;;;;;;;;3341552;42;20093;-55
2022/06/26 14:03:11;;;;;;;6.50;1.30;;;;;;;;;;3344712;42;20491;-58
2022/06/26 14:05:37;;;;;;;6.05;1.10;;;;;;;;;;3341871;42;20638;-55
2022/06/26 14:08:03;;;;;;;5.40;1.40;;;;;;;;;;3341309;42;20655;-58
2022/06/26 14:10:29;;;;;;;4.88;1.20;;;;;;;;;;3348076;42;20267;-58
2022/06/26 14:12:54;;;;;;;6.88;1.48;;;;;;;;;;3345329;42;20081;-58
2022/06/26 14:15:20;;;;;;;4.57;1.20;;;;;;;;;;3342244;42;20085;-58
2022/06/26 14:17:46;;;;;;;5.40;1.10;;;;;;;;;;3349348;42;20099;-58
2022/06/26 14:20:12;;;;;;;4.40;1.05;;;;;;;;;;3342718;42;20195;-57
2022/06/26 14:28:08;;;;;;;4.43;1.00;;;;;;;;;;3345843;42;20156;-57
2022/06/26 14:30:33;;;;;;;6.20;1.15;;;;;;;;;;3339734;42;20228;-59
2022/06/26 14:32:59;;;;;;;4.40;1.20;;;;;;;;;;3348375;42;20633;-57
2022/06/26 14:35:25;;;;;;;5.57;1.42;;;;;;;;;;3345579;42;20107;-57
2022/06/26 14:37:51;;;;;;;5.57;1.30;;;;;;;;;;3349165;42;20097;-57
2022/06/26 14:40:17;;;;;;;4.30;1.30;;;;;;;;;;3344409;42;20172;-57
2022/06/26 14:42:44;;;;;;;6.93;1.13;;;;;;;;;;3345364;42;20100;-56
2022/06/26 14:45:10;;;;;;;5.68;1.15;;;;;;;;;;3349186;42;20595;-53
2022/06/26 14:47:36;;;;;;;4.78;1.30;;;;;;;;;;3346493;42;20144;-57
2022/06/26 14:50:04;;;;;;;4.53;1.30;;;;;;;;;;3346291;42;20100;-58
2022/06/26 14:52:30;;;;;;;5.47;1.20;;;;;;;;;;3345163;42;20289;-58
2022/06/26 14:54:56;;;;;;;5.70;1.10;;;;;;;;;;3345601;42;20089;-57
2022/06/26 14:57:22;;;;;;;6.90;1.27;;;;;;;;;;3346812;42;20099;-56
2022/06/26 14:59:48;;;;;;;4.43;1.20;;;;;;;;;;3342053;42;20097;-58